sensor_id;sensor_type;location;lat;lon;timestamp;P1;durP1;ratioP1;P2;durP2;ratioP2
28762;SDS011;15918;51.270;6.522;2023-07-13T00:01:30;4.80;;;2.00;;
28762;SDS011;15918;51.270;6.522;2023-07-13T00:03:56;4.13;;;1.67;;
28762;SDS011;15918;51.270;6.522;2023-07-13T00:06:22;4.50;;;2.05;;
28762;SDS011;15918;51.270;6.522;2023-07-13T00:08:48;5.22;;;1.88;;
28762;SDS011;15918;51.270;6.522;2023-07-13T00:11:14;4.13;;;1.90;;
28762;SDS011;15918;51.270;6.522;2023-07-13T00:13:41;3.95;;;1.75;;
28762;SDS011;15918;51.270;6.522;2023-07-13T00:16:09;3.83;;;1.77;;
28762;SDS011;15918;51.270;6.522;2023-07-13T00:18:36;5.90;;;2.15;;
28762;SDS011;15918;51.270;6.522;2023-07-13T00:21:02;3.33;;;1.80;;
28762;SDS011;15918;51.270;6.522;2023-07-13T00:23:32;5.47;;;1.90;;
28762;SDS011;15918;51.270;6.522;2023-07-13T00:25:59;3.67;;;1.77;;
28762;SDS011;15918;51.270;6.522;2023-07-13T00:28:25;4.03;;;1.45;;
28762;SDS011;15918;51.270;6.522;2023-07-13T00:30:51;4.53;;;2.17;;
28762;SDS011;15918;51.270;6.522;2023-07-13T00:33:17;3.83;;;1.98;;
28762;SDS011;15918;51.270;6.522;2023-07-13T00:35:43;3.22;;;1.50;;
28762;SDS011;15918;51.270;6.522;2023-07-13T00:38:09;4.50;;;1.90;;
28762;SDS011;15918;51.270;6.522;2023-07-13T00:40:35;3.47;;;1.48;;
28762;SDS011;15918;51.270;6.522;2023-07-13T00:43:00;4.63;;;2.00;;
28762;SDS011;15918;51.270;6.522;2023-07-13T00:47:52;7.15;;;2.00;;
28762;SDS011;15918;51.270;6.522;2023-07-13T00:50:19;5.50;;;1.70;;
28762;SDS011;15918;51.270;6.522;2023-07-13T00:52:48;5.60;;;1.90;;
28762;SDS011;15918;51.270;6.522;2023-07-13T00:55:16;3.60;;;2.05;;
28762;SDS011;15918;51.270;6.522;2023-07-13T00:57:43;3.50;;;1.70;;
28762;SDS011;15918;51.270;6.522;2023-07-13T01:00:09;8.20;;;2.40;;
28762;SDS011;15918;51.270;6.522;2023-07-13T01:02:37;5.30;;;2.20;;
28762;SDS011;15918;51.270;6.522;2023-07-13T01:05:15;3.88;;;1.77;;
28762;SDS011;15918;51.270;6.522;2023-07-13T01:07:43;5.35;;;2.00;;
28762;SDS011;15918;51.270;6.522;2023-07-13T01:10:10;3.10;;;1.70;;
28762;SDS011;15918;51.270;6.522;2023-07-13T01:12:37;4.07;;;1.90;;
28762;SDS011;15918;51.270;6.522;2023-07-13T01:15:03;4.15;;;2.22;;
28762;SDS011;15918;51.270;6.522;2023-07-13T01:17:30;6.30;;;1.80;;
28762;SDS011;15918;51.270;6.522;2023-07-13T01:19:58;4.65;;;1.65;;
28762;SDS011;15918;51.270;6.522;2023-07-13T01:22:25;6.13;;;2.55;;
28762;SDS011;15918;51.270;6.522;2023-07-13T01:24:51;4.45;;;1.58;;
28762;SDS011;15918;51.270;6.522;2023-07-13T01:27:22;5.65;;;1.58;;
28762;SDS011;15918;51.270;6.522;2023-07-13T01:29:50;4.50;;;1.65;;
28762;SDS011;15918;51.270;6.522;2023-07-13T01:32:18;6.65;;;2.13;;
28762;SDS011;15918;51.270;6.522;2023-07-13T01:34:49;7.60;;;2.25;;
28762;SDS011;15918;51.270;6.522;2023-07-13T01:37:16;5.38;;;1.83;;
28762;SDS011;15918;51.270;6.522;2023-07-13T01:39:41;4.25;;;1.85;;
28762;SDS011;15918;51.270;6.522;2023-07-13T01:42:07;6.28;;;2.17;;
28762;SDS011;15918;51.270;6.522;2023-07-13T01:44:33;4.72;;;2.03;;
28762;SDS011;15918;51.270;6.522;2023-07-13T01:46:58;6.07;;;2.40;;
28762;SDS011;15918;51.270;6.522;2023-07-13T01:49:24;7.35;;;2.50;;
28762;SDS011;15918;51.270;6.522;2023-07-13T01:51:50;4.00;;;2.20;;
28762;SDS011;15918;51.270;6.522;2023-07-13T01:54:16;6.15;;;2.15;;
28762;SDS011;15918;51.270;6.522;2023-07-13T01:56:41;5.43;;;2.25;;
28762;SDS011;15918;51.270;6.522;2023-07-13T01:59:08;3.60;;;1.88;;
28762;SDS011;15918;51.270;6.522;2023-07-13T02:01:33;5.38;;;2.33;;
28762;SDS011;15918;51.270;6.522;2023-07-13T02:03:59;3.58;;;1.70;;
28762;SDS011;15918;51.270;6.522;2023-07-13T02:06:25;8.25;;;1.70;;
28762;SDS011;15918;51.270;6.522;2023-07-13T02:08:50;6.13;;;2.10;;
28762;SDS011;15918;51.270;6.522;2023-07-13T02:11:16;5.05;;;1.80;;
28762;SDS011;15918;51.270;6.522;2023-07-13T02:13:42;7.30;;;2.33;;
28762;SDS011;15918;51.270;6.522;2023-07-13T02:16:08;5.63;;;1.65;;
28762;SDS011;15918;51.270;6.522;2023-07-13T02:18:34;5.05;;;2.20;;
28762;SDS011;15918;51.270;6.522;2023-07-13T02:20:59;5.18;;;2.10;;
28762;SDS011;15918;51.270;6.522;2023-07-13T02:23:25;4.68;;;2.00;;
28762;SDS011;15918;51.270;6.522;2023-07-13T02:25:57;5.72;;;2.25;;
28762;SDS011;15918;51.270;6.522;2023-07-13T02:28:23;5.15;;;1.92;;
28762;SDS011;15918;51.270;6.522;2023-07-13T02:30:49;6.35;;;2.03;;
28762;SDS011;15918;51.270;6.522;2023-07-13T02:33:15;7.28;;;2.10;;
28762;SDS011;15918;51.270;6.522;2023-07-13T02:35:41;4.20;;;1.70;;
28762;SDS011;15918;51.270;6.522;2023-07-13T02:38:07;4.80;;;1.80;;
28762;SDS011;15918;51.270;6.522;2023-07-13T02:40:33;6.35;;;2.40;;
28762;SDS011;15918;51.270;6.522;2023-07-13T02:43:00;5.18;;;1.67;;
28762;SDS011;15918;51.270;6.522;2023-07-13T02:45:27;3.38;;;1.58;;
28762;SDS011;15918;51.270;6.522;2023-07-13T02:47:52;3.17;;;1.98;;
28762;SDS011;15918;51.270;6.522;2023-07-13T02:50:18;5.25;;;1.83;;
28762;SDS011;15918;51.270;6.522;2023-07-13T02:52:44;7.07;;;1.90;;
28762;SDS011;15918;51.270;6.522;2023-07-13T02:55:10;5.07;;;1.73;;
28762;SDS011;15918;51.270;6.522;2023-07-13T02:57:35;7.78;;;2.33;;
28762;SDS011;15918;51.270;6.522;2023-07-13T03:00:02;5.25;;;2.08;;
28762;SDS011;15918;51.270;6.522;2023-07-13T03:02:30;7.82;;;2.17;;
28762;SDS011;15918;51.270;6.522;2023-07-13T03:04:57;8.63;;;2.40;;
28762;SDS011;15918;51.270;6.522;2023-07-13T03:07:23;4.05;;;1.77;;
28762;SDS011;15918;51.270;6.522;2023-07-13T03:09:53;5.03;;;2.08;;
28762;SDS011;15918;51.270;6.522;2023-07-13T03:12:22;4.05;;;2.00;;
28762;SDS011;15918;51.270;6.522;2023-07-13T03:14:48;6.75;;;2.35;;
28762;SDS011;15918;51.270;6.522;2023-07-13T03:17:14;5.25;;;2.33;;
28762;SDS011;15918;51.270;6.522;2023-07-13T03:19:39;6.10;;;2.45;;
28762;SDS011;15918;51.270;6.522;2023-07-13T03:22:05;6.43;;;2.08;;
28762;SDS011;15918;51.270;6.522;2023-07-13T03:24:32;5.80;;;2.00;;
28762;SDS011;15918;51.270;6.522;2023-07-13T03:27:00;6.78;;;1.98;;
28762;SDS011;15918;51.270;6.522;2023-07-13T03:29:27;7.75;;;2.22;;
28762;SDS011;15918;51.270;6.522;2023-07-13T03:31:52;5.45;;;2.08;;
28762;SDS011;15918;51.270;6.522;2023-07-13T03:34:18;5.30;;;2.40;;
28762;SDS011;15918;51.270;6.522;2023-07-13T03:36:44;8.18;;;2.53;;
28762;SDS011;15918;51.270;6.522;2023-07-13T03:39:09;4.00;;;1.92;;
28762;SDS011;15918;51.270;6.522;2023-07-13T03:41:35;8.45;;;2.50;;
28762;SDS011;15918;51.270;6.522;2023-07-13T03:44:01;6.28;;;1.92;;
28762;SDS011;15918;51.270;6.522;2023-07-13T03:46:26;6.72;;;2.33;;
28762;SDS011;15918;51.270;6.522;2023-07-13T03:48:52;6.53;;;2.20;;
28762;SDS011;15918;51.270;6.522;2023-07-13T03:51:17;5.68;;;1.92;;
28762;SDS011;15918;51.270;6.522;2023-07-13T03:53:44;5.75;;;1.92;;
28762;SDS011;15918;51.270;6.522;2023-07-13T03:56:11;6.05;;;2.55;;
28762;SDS011;15918;51.270;6.522;2023-07-13T03:58:37;3.78;;;1.92;;
28762;SDS011;15918;51.270;6.522;2023-07-13T04:01:05;7.07;;;2.35;;
28762;SDS011;15918;51.270;6.522;2023-07-13T04:03:32;5.57;;;1.95;;
28762;SDS011;15918;51.270;6.522;2023-07-13T04:06:02;4.50;;;1.85;;
28762;SDS011;15918;51.270;6.522;2023-07-13T04:08:33;6.60;;;2.60;;
28762;SDS011;15918;51.270;6.522;2023-07-13T04:11:00;6.13;;;2.10;;
28762;SDS011;15918;51.270;6.522;2023-07-13T04:13:28;4.70;;;1.88;;
28762;SDS011;15918;51.270;6.522;2023-07-13T04:15:54;5.28;;;2.28;;
28762;SDS011;15918;51.270;6.522;2023-07-13T04:18:20;5.75;;;2.20;;
28762;SDS011;15918;51.270;6.522;2023-07-13T04:20:46;4.50;;;1.70;;
28762;SDS011;15918;51.270;6.522;2023-07-13T04:23:13;6.40;;;2.40;;
28762;SDS011;15918;51.270;6.522;2023-07-13T04:25:39;4.68;;;2.13;;
28762;SDS011;15918;51.270;6.522;2023-07-13T04:28:07;11.52;;;2.55;;
28762;SDS011;15918;51.270;6.522;2023-07-13T04:30:33;8.35;;;2.22;;
28762;SDS011;15918;51.270;6.522;2023-07-13T04:32:59;7.60;;;2.28;;
28762;SDS011;15918;51.270;6.522;2023-07-13T04:35:25;5.50;;;2.35;;
28762;SDS011;15918;51.270;6.522;2023-07-13T04:37:50;5.25;;;2.03;;
28762;SDS011;15918;51.270;6.522;2023-07-13T04:40:19;5.53;;;2.00;;
28762;SDS011;15918;51.270;6.522;2023-07-13T04:42:46;6.80;;;2.20;;
28762;SDS011;15918;51.270;6.522;2023-07-13T04:45:12;4.78;;;2.00;;
28762;SDS011;15918;51.270;6.522;2023-07-13T04:47:39;3.53;;;1.83;;
28762;SDS011;15918;51.270;6.522;2023-07-13T04:50:05;5.22;;;2.78;;
28762;SDS011;15918;51.270;6.522;2023-07-13T04:52:31;6.72;;;2.30;;
28762;SDS011;15918;51.270;6.522;2023-07-13T04:54:58;7.47;;;2.13;;
28762;SDS011;15918;51.270;6.522;2023-07-13T04:57:24;6.53;;;2.47;;
28762;SDS011;15918;51.270;6.522;2023-07-13T04:59:50;7.32;;;2.38;;
28762;SDS011;15918;51.270;6.522;2023-07-13T05:02:15;6.80;;;2.60;;
28762;SDS011;15918;51.270;6.522;2023-07-13T05:04:41;9.35;;;2.65;;
28762;SDS011;15918;51.270;6.522;2023-07-13T05:07:07;7.00;;;2.60;;
28762;SDS011;15918;51.270;6.522;2023-07-13T05:09:32;6.65;;;2.17;;
28762;SDS011;15918;51.270;6.522;2023-07-13T05:11:58;8.82;;;2.33;;
28762;SDS011;15918;51.270;6.522;2023-07-13T05:14:23;6.68;;;2.90;;
28762;SDS011;15918;51.270;6.522;2023-07-13T05:16:49;9.05;;;2.53;;
28762;SDS011;15918;51.270;6.522;2023-07-13T05:19:14;6.68;;;2.70;;
28762;SDS011;15918;51.270;6.522;2023-07-13T05:21:40;9.35;;;2.70;;
28762;SDS011;15918;51.270;6.522;2023-07-13T05:24:06;8.98;;;3.00;;
28762;SDS011;15918;51.270;6.522;2023-07-13T05:26:32;13.38;;;3.58;;
28762;SDS011;15918;51.270;6.522;2023-07-13T05:28:57;12.07;;;2.90;;
28762;SDS011;15918;51.270;6.522;2023-07-13T05:31:23;6.68;;;2.72;;
28762;SDS011;15918;51.270;6.522;2023-07-13T05:33:49;6.95;;;3.00;;
28762;SDS011;15918;51.270;6.522;2023-07-13T05:36:14;6.28;;;2.78;;
28762;SDS011;15918;51.270;6.522;2023-07-13T05:38:40;6.28;;;2.85;;
28762;SDS011;15918;51.270;6.522;2023-07-13T05:41:06;8.90;;;3.25;;
28762;SDS011;15918;51.270;6.522;2023-07-13T05:43:31;6.40;;;2.90;;
28762;SDS011;15918;51.270;6.522;2023-07-13T05:45:57;9.02;;;3.03;;
28762;SDS011;15918;51.270;6.522;2023-07-13T05:48:23;9.73;;;2.60;;
28762;SDS011;15918;51.270;6.522;2023-07-13T05:50:49;11.27;;;3.47;;
28762;SDS011;15918;51.270;6.522;2023-07-13T05:53:14;12.88;;;3.58;;
28762;SDS011;15918;51.270;6.522;2023-07-13T05:55:40;13.82;;;3.30;;
28762;SDS011;15918;51.270;6.522;2023-07-13T05:58:12;8.25;;;2.92;;
28762;SDS011;15918;51.270;6.522;2023-07-13T06:00:38;9.57;;;3.00;;
28762;SDS011;15918;51.270;6.522;2023-07-13T06:03:04;8.38;;;3.08;;
28762;SDS011;15918;51.270;6.522;2023-07-13T06:05:31;9.93;;;3.28;;
28762;SDS011;15918;51.270;6.522;2023-07-13T06:07:58;11.82;;;4.00;;
28762;SDS011;15918;51.270;6.522;2023-07-13T06:10:24;8.15;;;3.15;;
28762;SDS011;15918;51.270;6.522;2023-07-13T06:12:50;12.98;;;3.67;;
28762;SDS011;15918;51.270;6.522;2023-07-13T06:15:16;10.75;;;4.03;;
28762;SDS011;15918;51.270;6.522;2023-07-13T06:17:41;9.75;;;3.53;;
28762;SDS011;15918;51.270;6.522;2023-07-13T06:20:07;16.88;;;4.28;;
28762;SDS011;15918;51.270;6.522;2023-07-13T06:22:33;10.57;;;3.70;;
28762;SDS011;15918;51.270;6.522;2023-07-13T06:24:58;14.13;;;4.22;;
28762;SDS011;15918;51.270;6.522;2023-07-13T06:27:24;9.00;;;4.30;;
28762;SDS011;15918;51.270;6.522;2023-07-13T06:29:50;14.77;;;4.13;;
28762;SDS011;15918;51.270;6.522;2023-07-13T06:32:15;12.38;;;4.22;;
28762;SDS011;15918;51.270;6.522;2023-07-13T06:34:41;12.70;;;4.38;;
28762;SDS011;15918;51.270;6.522;2023-07-13T06:37:07;12.73;;;4.57;;
28762;SDS011;15918;51.270;6.522;2023-07-13T06:39:33;10.50;;;3.75;;
28762;SDS011;15918;51.270;6.522;2023-07-13T06:41:59;11.93;;;4.60;;
28762;SDS011;15918;51.270;6.522;2023-07-13T06:44:24;14.88;;;4.20;;
28762;SDS011;15918;51.270;6.522;2023-07-13T06:46:50;14.55;;;4.45;;
28762;SDS011;15918;51.270;6.522;2023-07-13T06:49:15;10.80;;;4.80;;
28762;SDS011;15918;51.270;6.522;2023-07-13T06:51:41;14.32;;;4.40;;
28762;SDS011;15918;51.270;6.522;2023-07-13T06:54:07;12.75;;;5.05;;
28762;SDS011;15918;51.270;6.522;2023-07-13T06:56:33;12.38;;;4.40;;
28762;SDS011;15918;51.270;6.522;2023-07-13T06:58:58;6.68;;;3.38;;
28762;SDS011;15918;51.270;6.522;2023-07-13T07:01:24;10.68;;;4.05;;
28762;SDS011;15918;51.270;6.522;2023-07-13T07:03:49;12.45;;;4.38;;
28762;SDS011;15918;51.270;6.522;2023-07-13T07:06:19;11.35;;;4.07;;
28762;SDS011;15918;51.270;6.522;2023-07-13T07:08:48;11.95;;;4.55;;
28762;SDS011;15918;51.270;6.522;2023-07-13T07:11:19;12.32;;;4.45;;
28762;SDS011;15918;51.270;6.522;2023-07-13T07:13:47;11.63;;;4.40;;
28762;SDS011;15918;51.270;6.522;2023-07-13T07:16:14;16.38;;;4.97;;
28762;SDS011;15918;51.270;6.522;2023-07-13T07:18:40;11.27;;;4.30;;
28762;SDS011;15918;51.270;6.522;2023-07-13T07:21:05;8.65;;;3.97;;
28762;SDS011;15918;51.270;6.522;2023-07-13T07:23:31;12.93;;;4.95;;
28762;SDS011;15918;51.270;6.522;2023-07-13T07:25:57;10.60;;;4.40;;
28762;SDS011;15918;51.270;6.522;2023-07-13T07:28:23;12.30;;;4.10;;
28762;SDS011;15918;51.270;6.522;2023-07-13T07:30:49;12.68;;;4.53;;
28762;SDS011;15918;51.270;6.522;2023-07-13T07:33:18;9.30;;;4.15;;
28762;SDS011;15918;51.270;6.522;2023-07-13T07:35:44;10.70;;;4.45;;
28762;SDS011;15918;51.270;6.522;2023-07-13T07:38:10;8.98;;;3.80;;
28762;SDS011;15918;51.270;6.522;2023-07-13T07:40:39;10.93;;;4.22;;
28762;SDS011;15918;51.270;6.522;2023-07-13T07:43:09;9.25;;;4.38;;
28762;SDS011;15918;51.270;6.522;2023-07-13T07:45:36;10.32;;;4.18;;
28762;SDS011;15918;51.270;6.522;2023-07-13T07:48:03;13.57;;;4.40;;
28762;SDS011;15918;51.270;6.522;2023-07-13T07:50:29;13.52;;;5.47;;
28762;SDS011;15918;51.270;6.522;2023-07-13T07:52:56;12.07;;;4.43;;
28762;SDS011;15918;51.270;6.522;2023-07-13T07:55:22;9.30;;;3.42;;
28762;SDS011;15918;51.270;6.522;2023-07-13T07:57:48;8.55;;;3.38;;
28762;SDS011;15918;51.270;6.522;2023-07-13T08:00:15;9.85;;;3.85;;
28762;SDS011;15918;51.270;6.522;2023-07-13T08:02:41;12.43;;;4.00;;
28762;SDS011;15918;51.270;6.522;2023-07-13T08:05:07;9.10;;;3.50;;
28762;SDS011;15918;51.270;6.522;2023-07-13T08:07:34;10.00;;;4.10;;
28762;SDS011;15918;51.270;6.522;2023-07-13T08:10:00;11.93;;;3.85;;
28762;SDS011;15918;51.270;6.522;2023-07-13T08:12:26;11.80;;;4.53;;
28762;SDS011;15918;51.270;6.522;2023-07-13T08:14:52;8.73;;;4.40;;
28762;SDS011;15918;51.270;6.522;2023-07-13T08:17:22;7.78;;;3.22;;
28762;SDS011;15918;51.270;6.522;2023-07-13T08:19:49;7.10;;;3.05;;
28762;SDS011;15918;51.270;6.522;2023-07-13T08:22:15;9.88;;;4.35;;
28762;SDS011;15918;51.270;6.522;2023-07-13T08:24:41;11.82;;;5.03;;
28762;SDS011;15918;51.270;6.522;2023-07-13T08:27:12;10.45;;;3.92;;
28762;SDS011;15918;51.270;6.522;2023-07-13T08:29:38;13.35;;;4.68;;
28762;SDS011;15918;51.270;6.522;2023-07-13T08:32:05;10.30;;;4.13;;
28762;SDS011;15918;51.270;6.522;2023-07-13T08:34:34;7.32;;;3.47;;
28762;SDS011;15918;51.270;6.522;2023-07-13T08:37:00;9.57;;;4.45;;
28762;SDS011;15918;51.270;6.522;2023-07-13T08:39:26;10.45;;;3.88;;
28762;SDS011;15918;51.270;6.522;2023-07-13T08:41:55;9.43;;;3.67;;
28762;SDS011;15918;51.270;6.522;2023-07-13T08:47:14;12.23;;;4.10;;
28762;SDS011;15918;51.270;6.522;2023-07-13T08:49:40;13.20;;;4.70;;
28762;SDS011;15918;51.270;6.522;2023-07-13T08:52:12;12.23;;;4.55;;
28762;SDS011;15918;51.270;6.522;2023-07-13T08:54:51;13.45;;;4.45;;
28762;SDS011;15918;51.270;6.522;2023-07-13T08:57:20;11.40;;;4.22;;
28762;SDS011;15918;51.270;6.522;2023-07-13T08:59:49;14.45;;;4.75;;
28762;SDS011;15918;51.270;6.522;2023-07-13T09:07:33;11.05;;;4.68;;
28762;SDS011;15918;51.270;6.522;2023-07-13T09:12:35;16.00;;;5.15;;
28762;SDS011;15918;51.270;6.522;2023-07-13T09:18:13;11.02;;;4.40;;
28762;SDS011;15918;51.270;6.522;2023-07-13T09:20:51;10.52;;;3.85;;
28762;SDS011;15918;51.270;6.522;2023-07-13T09:23:35;15.50;;;4.57;;
28762;SDS011;15918;51.270;6.522;2023-07-13T09:26:23;13.27;;;4.80;;
28762;SDS011;15918;51.270;6.522;2023-07-13T09:28:49;11.10;;;3.90;;
28762;SDS011;15918;51.270;6.522;2023-07-13T09:31:34;10.57;;;3.70;;
28762;SDS011;15918;51.270;6.522;2023-07-13T09:34:06;11.27;;;4.63;;
28762;SDS011;15918;51.270;6.522;2023-07-13T09:36:37;10.02;;;4.00;;
28762;SDS011;15918;51.270;6.522;2023-07-13T09:39:14;10.98;;;3.85;;
28762;SDS011;15918;51.270;6.522;2023-07-13T09:44:39;10.60;;;3.97;;
28762;SDS011;15918;51.270;6.522;2023-07-13T09:47:28;12.00;;;3.60;;
28762;SDS011;15918;51.270;6.522;2023-07-13T09:52:38;8.90;;;3.15;;
28762;SDS011;15918;51.270;6.522;2023-07-13T09:55:15;11.45;;;3.60;;
28762;SDS011;15918;51.270;6.522;2023-07-13T09:58:09;11.52;;;4.10;;
28762;SDS011;15918;51.270;6.522;2023-07-13T10:00:37;10.80;;;3.92;;
28762;SDS011;15918;51.270;6.522;2023-07-13T10:03:17;8.02;;;4.60;;
28762;SDS011;15918;51.270;6.522;2023-07-13T10:05:47;13.95;;;4.53;;
28762;SDS011;15918;51.270;6.522;2023-07-13T10:08:23;9.77;;;3.72;;
28762;SDS011;15918;51.270;6.522;2023-07-13T10:11:08;7.82;;;3.80;;
28762;SDS011;15918;51.270;6.522;2023-07-13T10:13:37;8.30;;;3.75;;
28762;SDS011;15918;51.270;6.522;2023-07-13T10:16:09;10.20;;;3.53;;
28762;SDS011;15918;51.270;6.522;2023-07-13T10:21:15;11.77;;;3.78;;
28762;SDS011;15918;51.270;6.522;2023-07-13T10:23:45;9.75;;;3.60;;
28762;SDS011;15918;51.270;6.522;2023-07-13T10:26:16;10.02;;;3.50;;
28762;SDS011;15918;51.270;6.522;2023-07-13T10:28:47;7.72;;;3.42;;
28762;SDS011;15918;51.270;6.522;2023-07-13T10:31:18;8.32;;;3.97;;
28762;SDS011;15918;51.270;6.522;2023-07-13T10:33:45;6.97;;;3.35;;
28762;SDS011;15918;51.270;6.522;2023-07-13T10:36:23;9.77;;;3.33;;
28762;SDS011;15918;51.270;6.522;2023-07-13T10:38:59;10.27;;;3.70;;
28762;SDS011;15918;51.270;6.522;2023-07-13T10:41:27;9.18;;;3.35;;
28762;SDS011;15918;51.270;6.522;2023-07-13T10:43:55;8.93;;;3.75;;
28762;SDS011;15918;51.270;6.522;2023-07-13T10:46:24;7.68;;;3.08;;
28762;SDS011;15918;51.270;6.522;2023-07-13T10:48:58;10.55;;;3.58;;
28762;SDS011;15918;51.270;6.522;2023-07-13T10:51:31;13.45;;;3.42;;
28762;SDS011;15918;51.270;6.522;2023-07-13T10:54:11;12.25;;;3.60;;
28762;SDS011;15918;51.270;6.522;2023-07-13T10:56:47;8.18;;;3.60;;
28762;SDS011;15918;51.270;6.522;2023-07-13T10:59:18;5.43;;;2.88;;
28762;SDS011;15918;51.270;6.522;2023-07-13T11:01:55;8.43;;;3.10;;
28762;SDS011;15918;51.270;6.522;2023-07-13T11:09:32;6.57;;;3.42;;
28762;SDS011;15918;51.270;6.522;2023-07-13T11:12:01;7.75;;;3.38;;
28762;SDS011;15918;51.270;6.522;2023-07-13T11:14:36;6.40;;;3.20;;
28762;SDS011;15918;51.270;6.522;2023-07-13T11:20:07;6.03;;;3.22;;
28762;SDS011;15918;51.270;6.522;2023-07-13T11:22:42;7.68;;;2.78;;
28762;SDS011;15918;51.270;6.522;2023-07-13T11:30:32;5.47;;;2.67;;
28762;SDS011;15918;51.270;6.522;2023-07-13T11:36:05;6.97;;;2.75;;
28762;SDS011;15918;51.270;6.522;2023-07-13T11:41:15;6.97;;;2.42;;
28762;SDS011;15918;51.270;6.522;2023-07-13T11:43:50;6.35;;;3.20;;
28762;SDS011;15918;51.270;6.522;2023-07-13T11:46:23;8.23;;;3.35;;
28762;SDS011;15918;51.270;6.522;2023-07-13T11:48:50;5.22;;;2.33;;
28762;SDS011;15918;51.270;6.522;2023-07-13T11:51:19;7.70;;;2.80;;
28762;SDS011;15918;51.270;6.522;2023-07-13T11:53:57;6.35;;;2.38;;
28762;SDS011;15918;51.270;6.522;2023-07-13T11:56:27;6.72;;;2.80;;
28762;SDS011;15918;51.270;6.522;2023-07-13T11:58:53;5.47;;;2.30;;
28762;SDS011;15918;51.270;6.522;2023-07-13T12:01:22;5.53;;;2.55;;
28762;SDS011;15918;51.270;6.522;2023-07-13T12:03:57;5.85;;;2.70;;
28762;SDS011;15918;51.270;6.522;2023-07-13T12:06:32;6.72;;;2.55;;
28762;SDS011;15918;51.270;6.522;2023-07-13T12:09:13;6.95;;;2.10;;
28762;SDS011;15918;51.270;6.522;2023-07-13T12:11:44;5.35;;;2.15;;
28762;SDS011;15918;51.270;6.522;2023-07-13T12:14:16;7.65;;;2.30;;
28762;SDS011;15918;51.270;6.522;2023-07-13T12:16:43;7.45;;;2.78;;
28762;SDS011;15918;51.270;6.522;2023-07-13T12:21:44;5.63;;;2.42;;
28762;SDS011;15918;51.270;6.522;2023-07-13T12:24:13;7.75;;;3.10;;
28762;SDS011;15918;51.270;6.522;2023-07-13T12:26:43;5.32;;;2.63;;
28762;SDS011;15918;51.270;6.522;2023-07-13T12:29:16;5.18;;;1.98;;
28762;SDS011;15918;51.270;6.522;2023-07-13T12:31:43;6.10;;;2.28;;
28762;SDS011;15918;51.270;6.522;2023-07-13T12:34:12;9.88;;;2.92;;
28762;SDS011;15918;51.270;6.522;2023-07-13T12:36:45;6.45;;;2.30;;
28762;SDS011;15918;51.270;6.522;2023-07-13T12:41:45;7.30;;;2.85;;
28762;SDS011;15918;51.270;6.522;2023-07-13T12:44:12;6.53;;;2.20;;
28762;SDS011;15918;51.270;6.522;2023-07-13T12:46:58;8.82;;;2.50;;
28762;SDS011;15918;51.270;6.522;2023-07-13T12:49:30;4.95;;;2.13;;
28762;SDS011;15918;51.270;6.522;2023-07-13T12:52:03;5.05;;;2.13;;
28762;SDS011;15918;51.270;6.522;2023-07-13T12:54:39;5.25;;;2.58;;
28762;SDS011;15918;51.270;6.522;2023-07-13T12:57:05;5.65;;;2.45;;
28762;SDS011;15918;51.270;6.522;2023-07-13T12:59:34;5.78;;;2.00;;
28762;SDS011;15918;51.270;6.522;2023-07-13T13:02:01;3.08;;;2.35;;
28762;SDS011;15918;51.270;6.522;2023-07-13T13:04:27;5.53;;;2.47;;
28762;SDS011;15918;51.270;6.522;2023-07-13T13:07:00;7.25;;;2.60;;
28762;SDS011;15918;51.270;6.522;2023-07-13T13:09:28;4.82;;;2.50;;
28762;SDS011;15918;51.270;6.522;2023-07-13T13:11:54;7.45;;;2.05;;
28762;SDS011;15918;51.270;6.522;2023-07-13T13:14:19;7.82;;;2.58;;
28762;SDS011;15918;51.270;6.522;2023-07-13T13:16:46;6.30;;;2.25;;
28762;SDS011;15918;51.270;6.522;2023-07-13T13:21:42;6.20;;;2.60;;
28762;SDS011;15918;51.270;6.522;2023-07-13T13:24:12;9.70;;;2.33;;
28762;SDS011;15918;51.270;6.522;2023-07-13T13:26:39;5.22;;;2.15;;
28762;SDS011;15918;51.270;6.522;2023-07-13T13:29:16;8.18;;;2.22;;
28762;SDS011;15918;51.270;6.522;2023-07-13T13:31:43;5.70;;;2.30;;
28762;SDS011;15918;51.270;6.522;2023-07-13T13:34:09;3.65;;;1.95;;
28762;SDS011;15918;51.270;6.522;2023-07-13T13:36:36;4.35;;;2.00;;
28762;SDS011;15918;51.270;6.522;2023-07-13T13:39:02;3.83;;;1.95;;
28762;SDS011;15918;51.270;6.522;2023-07-13T13:41:29;6.55;;;2.50;;
28762;SDS011;15918;51.270;6.522;2023-07-13T13:43:56;5.22;;;2.20;;
28762;SDS011;15918;51.270;6.522;2023-07-13T13:46:22;5.00;;;2.47;;
28762;SDS011;15918;51.270;6.522;2023-07-13T13:48:54;3.65;;;2.20;;
28762;SDS011;15918;51.270;6.522;2023-07-13T13:51:22;5.53;;;2.45;;
28762;SDS011;15918;51.270;6.522;2023-07-13T13:53:49;6.93;;;2.42;;
28762;SDS011;15918;51.270;6.522;2023-07-13T13:56:15;5.70;;;2.80;;
28762;SDS011;15918;51.270;6.522;2023-07-13T13:58:43;3.38;;;2.05;;
28762;SDS011;15918;51.270;6.522;2023-07-13T14:01:19;12.45;;;2.72;;
28762;SDS011;15918;51.270;6.522;2023-07-13T14:03:47;5.30;;;2.13;;
28762;SDS011;15918;51.270;6.522;2023-07-13T14:06:22;5.63;;;2.72;;
28762;SDS011;15918;51.270;6.522;2023-07-13T14:08:48;3.22;;;2.10;;
28762;SDS011;15918;51.270;6.522;2023-07-13T14:11:14;4.40;;;2.55;;
28762;SDS011;15918;51.270;6.522;2023-07-13T14:13:44;5.25;;;2.00;;
28762;SDS011;15918;51.270;6.522;2023-07-13T14:16:18;6.00;;;2.42;;
28762;SDS011;15918;51.270;6.522;2023-07-13T14:18:45;4.82;;;2.33;;
28762;SDS011;15918;51.270;6.522;2023-07-13T14:21:15;8.75;;;2.63;;
28762;SDS011;15918;51.270;6.522;2023-07-13T14:23:43;4.15;;;2.00;;
28762;SDS011;15918;51.270;6.522;2023-07-13T14:26:11;4.25;;;2.45;;
28762;SDS011;15918;51.270;6.522;2023-07-13T14:28:38;9.77;;;2.97;;
28762;SDS011;15918;51.270;6.522;2023-07-13T14:31:08;4.32;;;2.15;;
28762;SDS011;15918;51.270;6.522;2023-07-13T14:33:34;11.48;;;3.40;;
28762;SDS011;15918;51.270;6.522;2023-07-13T14:36:00;8.13;;;3.10;;
28762;SDS011;15918;51.270;6.522;2023-07-13T14:38:26;7.82;;;3.15;;
28762;SDS011;15918;51.270;6.522;2023-07-13T14:40:52;8.95;;;2.47;;
28762;SDS011;15918;51.270;6.522;2023-07-13T14:43:17;6.57;;;2.45;;
28762;SDS011;15918;51.270;6.522;2023-07-13T14:45:44;9.75;;;2.88;;
28762;SDS011;15918;51.270;6.522;2023-07-13T14:48:21;7.65;;;2.20;;
28762;SDS011;15918;51.270;6.522;2023-07-13T14:50:57;6.38;;;2.78;;
28762;SDS011;15918;51.270;6.522;2023-07-13T14:53:27;7.15;;;2.50;;
28762;SDS011;15918;51.270;6.522;2023-07-13T14:55:53;5.93;;;2.40;;
28762;SDS011;15918;51.270;6.522;2023-07-13T14:58:19;7.22;;;2.47;;
28762;SDS011;15918;51.270;6.522;2023-07-13T15:00:44;7.15;;;2.60;;
28762;SDS011;15918;51.270;6.522;2023-07-13T15:03:21;4.85;;;2.92;;
28762;SDS011;15918;51.270;6.522;2023-07-13T15:05:49;6.47;;;2.63;;
28762;SDS011;15918;51.270;6.522;2023-07-13T15:08:15;7.90;;;2.67;;
28762;SDS011;15918;51.270;6.522;2023-07-13T15:10:41;12.95;;;3.10;;
28762;SDS011;15918;51.270;6.522;2023-07-13T15:13:14;5.93;;;2.67;;
28762;SDS011;15918;51.270;6.522;2023-07-13T15:15:42;4.53;;;2.40;;
28762;SDS011;15918;51.270;6.522;2023-07-13T15:18:11;7.70;;;2.95;;
28762;SDS011;15918;51.270;6.522;2023-07-13T15:20:38;5.18;;;2.70;;
28762;SDS011;15918;51.270;6.522;2023-07-13T15:23:03;5.50;;;2.80;;
28762;SDS011;15918;51.270;6.522;2023-07-13T15:25:30;7.88;;;3.10;;
28762;SDS011;15918;51.270;6.522;2023-07-13T15:27:58;8.32;;;2.80;;
28762;SDS011;15918;51.270;6.522;2023-07-13T15:30:27;9.15;;;3.03;;
28762;SDS011;15918;51.270;6.522;2023-07-13T15:32:55;5.60;;;2.90;;
28762;SDS011;15918;51.270;6.522;2023-07-13T15:35:26;6.07;;;2.42;;
28762;SDS011;15918;51.270;6.522;2023-07-13T15:37:53;7.20;;;2.78;;
28762;SDS011;15918;51.270;6.522;2023-07-13T15:40:19;6.40;;;3.40;;
28762;SDS011;15918;51.270;6.522;2023-07-13T15:42:48;5.63;;;2.50;;